Wednesday, October 18, 2017, 5:16 PM CDT
Back to Local

KFRI, Fort Riley, Marshall Aaf Ft Riley

Location: Fort Riley, KS, United States Lat: 39.056
Local Time: 5:16 PM CDT (22:16 GMT) Lon: -96.764
Time Zone: US/Central Elev: 1062 ft

Show me the last for .
Show Decoded

2017-10-18 15:58 METAR KFRI 182058Z AUTO 22012KT 10SM CLR 25/10 A2994 RMK AO2 SLP132 T02510103
                 55014 =
2017-10-18 14:58 METAR KFRI 181958Z AUTO 22011KT 10SM CLR 24/09 A2994 RMK AO2 SLP133 T02440094 =
2017-10-18 13:58 METAR KFRI 181858Z AUTO 21012KT 10SM FEW180 23/10 A2995 RMK AO2 SLP136 T02280102
                 =
2017-10-18 12:58 METAR KFRI 181758Z AUTO 23010KT 10SM CLR 21/09 A2998 RMK AO2 SLP146 T02120094
                 10214 20096 55003 =
2017-10-18 11:58 METAR KFRI 181658Z AUTO 23011KT 10SM CLR 20/09 A2997 RMK AO2 SLP144 T02020087 =
2017-10-18 10:58 METAR KFRI 181558Z AUTO 20013KT 10SM CLR 18/08 A2997 RMK AO2 SLP144 T01810079 =
2017-10-18 09:58 METAR KFRI 181458Z AUTO 21012G17KT 10SM CLR 16/07 A2999 RMK AO2 SLP151 T01600074
                 50002 =
2017-10-18 08:58 METAR KFRI 181358Z AUTO 18003KT 10SM CLR 12/08 A3000 RMK AO2 SLP155 T01230075 =
2017-10-18 07:58 METAR KFRI 181258Z AUTO 00000KT 10SM CLR 10/06 A2999 RMK AO2 SLP152 T00990061 =
2017-10-18 06:58 METAR KFRI 181158Z AUTO 16006KT 10SM CLR 10/06 A2998 RMK AO2 SLP148 T00990064
                 10140 20094 55002 =
2017-10-18 05:58 METAR KFRI 181058Z AUTO 00000KT 10SM CLR 10/06 A2999 RMK AO2 SLP151 T00980063 =
2017-10-18 04:58 METAR KFRI 180958Z AUTO 00000KT 10SM CLR 12/07 A2998 RMK AO2 SLP146 T01150065 =
2017-10-18 03:58 METAR KFRI 180858Z AUTO 00000KT 10SM CLR 12/07 A2999 RMK AO2 SLP150 T01200069
                 58010 =
2017-10-18 02:58 METAR KFRI 180758Z AUTO 22004KT 10SM CLR 12/07 A3001 RMK AO2 SLP156 T01230069 =
2017-10-18 01:58 METAR KFRI 180658Z AUTO 21005KT 10SM CLR 13/07 A3002 RMK AO2 SLP160 T01250072 =
2017-10-18 00:58 METAR KFRI 180558Z AUTO 20008KT 10SM CLR 14/07 A3002 RMK AO2 SLP160 T01400074
                 10204 20138 402410099 58004 =
2017-10-17 23:58 METAR KFRI 180458Z AUTO 20005KT 10SM CLR 14/07 A3004 RMK AO2 SLP167 T01420072 =
2017-10-17 22:58 METAR KFRI 180358Z AUTO 20009KT 10SM CLR 16/08 A3004 RMK AO2 SLP167 T01560075 =
2017-10-17 21:58 METAR KFRI 180258Z AUTO 19011KT 10SM CLR 17/08 A3004 RMK AO2 SLP168 T01650076
                 52007 =
2017-10-17 20:58 METAR KFRI 180158Z AUTO 19007KT 10SM CLR 18/08 A3003 RMK AO2 SLP166 T01750077 =
2017-10-17 19:58 METAR KFRI 180058Z AUTO 20009KT 10SM CLR 19/08 A3003 RMK AO2 SLP166 T01880079 =
2017-10-17 18:58 METAR KFRI 172358Z AUTO 19007KT 10SM CLR 21/08 A3002 RMK AO2 SLP161 T02060082
                 10241 20206 57004 =
2017-10-17 17:58 METAR KFRI 172258Z AUTO 21009KT 10SM CLR 22/09 A3002 RMK AO2 SLP161 T02230091 =

Support USWX by starting your Amazon purchase here.